createdAt,value
2023-09-27T00:00:12.690Z,13.70
2023-09-27T00:02:43.588Z,13.70
2023-09-27T00:05:12.870Z,13.60
2023-09-27T00:07:42.433Z,13.60
2023-09-27T00:10:12.724Z,13.60
2023-09-27T00:12:42.518Z,13.60
2023-09-27T00:15:12.987Z,13.50
2023-09-27T00:17:44.454Z,13.50
2023-09-27T00:20:17.271Z,13.50
2023-09-27T00:22:46.448Z,13.50
2023-09-27T00:25:15.563Z,13.50
2023-09-27T00:27:44.056Z,13.50
2023-09-27T00:30:15.185Z,13.40
2023-09-27T00:32:46.771Z,13.40
2023-09-27T00:35:20.632Z,13.30
2023-09-27T00:37:49.484Z,13.30
2023-09-27T00:40:19.196Z,13.30
2023-09-27T00:42:48.868Z,13.30
2023-09-27T00:45:19.158Z,13.30
2023-09-27T00:47:50.423Z,13.30
2023-09-27T00:50:18.935Z,13.20
2023-09-27T00:52:49.762Z,13.20
2023-09-27T00:55:21.868Z,13.20
2023-09-27T00:57:52.476Z,13.10
2023-09-27T01:00:21.621Z,13.10
2023-09-27T01:02:52.584Z,13.10
2023-09-27T01:05:21.600Z,13.10
2023-09-27T01:07:49.728Z,13.00
2023-09-27T01:10:18.182Z,13.00
2023-09-27T01:12:46.512Z,13.00
2023-09-27T01:15:14.707Z,13.00
2023-09-27T01:17:55.987Z,13.00
2023-09-27T01:20:24.472Z,13.00
2023-09-27T01:22:58.839Z,13.00
2023-09-27T01:25:30.184Z,13.00
2023-09-27T01:27:58.989Z,13.00
2023-09-27T01:30:33.195Z,12.90
2023-09-27T01:33:06.722Z,12.90
2023-09-27T01:35:37.552Z,12.90
2023-09-27T01:38:08.646Z,12.80
2023-09-27T01:40:42.473Z,12.80
2023-09-27T01:43:13.957Z,12.80
2023-09-27T01:45:43.802Z,12.80
2023-09-27T01:48:12.183Z,12.80
2023-09-27T01:50:40.418Z,12.80
2023-09-27T01:53:10.016Z,12.80
2023-09-27T01:55:38.222Z,12.90
2023-09-27T01:58:06.473Z,12.80
2023-09-27T02:00:34.925Z,12.80
2023-09-27T02:03:04.007Z,12.70
2023-09-27T02:05:32.902Z,12.70
2023-09-27T02:08:02.186Z,12.70
2023-09-27T02:10:32.202Z,12.70
2023-09-27T02:13:00.493Z,12.70
2023-09-27T02:15:28.877Z,12.70
2023-09-27T02:17:57.222Z,12.70
2023-09-27T02:20:26.739Z,12.70
2023-09-27T02:22:56.754Z,12.70
2023-09-27T02:25:25.018Z,12.60
2023-09-27T02:27:54.506Z,12.60
2023-09-27T02:30:22.878Z,12.60
2023-09-27T02:32:51.024Z,12.60
2023-09-27T02:35:20.594Z,12.60
2023-09-27T02:37:49.079Z,12.50
2023-09-27T02:40:18.704Z,12.50
2023-09-27T02:42:48.245Z,12.50
2023-09-27T02:45:17.986Z,12.50
2023-09-27T02:47:47.784Z,12.50
2023-09-27T02:50:16.988Z,12.40
2023-09-27T02:52:45.928Z,12.40
2023-09-27T02:55:15.488Z,12.40
2023-09-27T02:57:49.880Z,12.40
2023-09-27T03:00:20.345Z,12.40
2023-09-27T03:02:49.406Z,12.30
2023-09-27T03:05:18.819Z,12.30
2023-09-27T03:07:47.093Z,12.30
2023-09-27T03:10:17.058Z,12.30
2023-09-27T03:12:47.968Z,12.20
2023-09-27T03:15:16.122Z,12.40
2023-09-27T03:17:46.215Z,12.30
2023-09-27T03:20:18.537Z,12.30
2023-09-27T03:22:47.468Z,12.30
2023-09-27T03:25:17.943Z,12.30
2023-09-27T03:27:46.533Z,12.30
2023-09-27T03:30:14.973Z,12.30
2023-09-27T03:32:45.843Z,12.30
2023-09-27T03:35:14.567Z,12.30
2023-09-27T03:37:42.701Z,12.20
2023-09-27T03:40:15.051Z,12.20
2023-09-27T03:42:46.045Z,12.30
2023-09-27T03:45:15.626Z,12.20
2023-09-27T03:47:46.924Z,12.10
2023-09-27T03:50:19.597Z,12.10
2023-09-27T03:52:47.738Z,12.10
2023-09-27T03:55:15.995Z,12.10
2023-09-27T03:57:44.659Z,12.10
2023-09-27T04:00:15.226Z,12.00
2023-09-27T04:02:47.588Z,12.00
2023-09-27T04:05:18.179Z,12.00
2023-09-27T04:07:46.286Z,12.00
2023-09-27T04:10:14.827Z,12.10
2023-09-27T04:12:43.026Z,12.20
2023-09-27T04:15:12.065Z,12.10
2023-09-27T04:17:40.810Z,12.10
2023-09-27T04:20:15.487Z,12.10
2023-09-27T04:22:45.708Z,12.10
2023-09-27T04:25:14.350Z,12.00
2023-09-27T04:27:44.168Z,12.00
2023-09-27T04:30:14.632Z,12.10
2023-09-27T04:32:45.044Z,12.00
2023-09-27T04:35:16.072Z,12.00
2023-09-27T04:37:44.565Z,12.00
2023-09-27T04:40:13.418Z,12.10
2023-09-27T04:42:41.543Z,12.10
2023-09-27T04:45:11.276Z,12.00
2023-09-27T04:47:39.597Z,11.90
2023-09-27T04:50:10.818Z,11.90
2023-09-27T04:52:41.659Z,12.00
2023-09-27T04:55:11.600Z,11.90
2023-09-27T04:57:39.773Z,11.90
2023-09-27T05:00:15.422Z,11.90
2023-09-27T05:02:44.245Z,11.90
2023-09-27T05:05:12.511Z,11.90
2023-09-27T05:07:42.200Z,11.80
2023-09-27T05:10:11.254Z,11.80
2023-09-27T05:12:40.679Z,11.80
2023-09-27T05:15:10.480Z,11.80
2023-09-27T05:17:39.119Z,11.80
2023-09-27T05:20:12.096Z,11.70
2023-09-27T05:22:43.907Z,11.70
2023-09-27T05:25:13.053Z,11.60
2023-09-27T05:27:41.569Z,11.60
2023-09-27T05:30:11.378Z,11.70
2023-09-27T05:32:39.830Z,11.80
2023-09-27T05:35:09.175Z,11.80
2023-09-27T05:37:37.309Z,11.80
2023-09-27T05:40:10.386Z,11.80
2023-09-27T05:42:39.103Z,11.80
2023-09-27T05:45:11.700Z,11.80
2023-09-27T05:47:40.682Z,11.80
2023-09-27T05:50:10.670Z,11.80
2023-09-27T05:52:39.026Z,11.90
2023-09-27T05:55:09.809Z,11.90
2023-09-27T05:57:38.035Z,12.00
2023-09-27T06:00:16.232Z,11.90
2023-09-27T06:02:44.749Z,12.00
2023-09-27T06:05:13.658Z,12.10
2023-09-27T06:07:41.859Z,12.10
2023-09-27T06:10:11.788Z,12.10
2023-09-27T06:12:40.028Z,12.10
2023-09-27T06:15:10.913Z,12.20
2023-09-27T06:17:39.170Z,12.20
2023-09-27T06:20:12.793Z,12.30
2023-09-27T06:22:41.248Z,12.40
2023-09-27T06:25:11.480Z,12.50
2023-09-27T06:27:40.754Z,12.50
2023-09-27T06:30:10.193Z,12.50
2023-09-27T06:32:38.403Z,12.60
2023-09-27T06:35:14.071Z,12.60
2023-09-27T06:37:44.866Z,12.70
2023-09-27T06:40:17.529Z,12.80
2023-09-27T06:42:46.251Z,12.90
2023-09-27T06:45:15.315Z,13.00
2023-09-27T06:47:46.255Z,13.10
2023-09-27T06:50:15.000Z,13.20
2023-09-27T06:52:43.244Z,13.40
2023-09-27T06:55:12.960Z,13.50
2023-09-27T06:57:43.268Z,13.70
2023-09-27T07:00:14.251Z,13.80
2023-09-27T07:02:43.910Z,14.00
2023-09-27T07:05:13.055Z,14.20
2023-09-27T07:07:41.780Z,14.40
2023-09-27T07:10:11.354Z,14.60
2023-09-27T07:12:39.595Z,14.70
2023-09-27T07:15:11.127Z,14.90
2023-09-27T07:17:40.643Z,15.00
2023-09-27T07:20:18.734Z,15.20
2023-09-27T07:22:47.025Z,15.30
2023-09-27T07:25:17.934Z,15.40
2023-09-27T07:27:47.313Z,15.60
2023-09-27T07:30:19.526Z,15.60
2023-09-27T07:32:47.997Z,15.70
2023-09-27T07:35:17.811Z,15.70
2023-09-27T07:37:46.650Z,15.70
2023-09-27T07:40:16.361Z,15.70
2023-09-27T07:42:46.034Z,15.80
2023-09-27T07:45:22.596Z,15.80
2023-09-27T07:47:52.706Z,15.80
2023-09-27T07:50:21.557Z,15.80
2023-09-27T07:52:49.916Z,15.80
2023-09-27T07:55:18.974Z,15.90
2023-09-27T07:57:47.258Z,15.80
2023-09-27T08:00:19.995Z,15.80
2023-09-27T08:02:48.344Z,15.80
2023-09-27T08:05:18.183Z,15.80
2023-09-27T08:07:46.559Z,15.70
2023-09-27T08:12:46.848Z,15.60
2023-09-27T08:15:18.272Z,15.70
2023-09-27T08:17:47.321Z,15.80
2023-09-27T08:20:15.913Z,15.90
2023-09-27T08:22:44.096Z,16.00
2023-09-27T08:25:16.306Z,16.20
2023-09-27T08:27:45.775Z,16.30
2023-09-27T08:30:16.065Z,16.50
2023-09-27T08:32:44.489Z,16.70
2023-09-27T08:35:13.042Z,16.80
2023-09-27T08:37:41.293Z,16.90
2023-09-27T08:40:14.451Z,16.90
2023-09-27T08:42:44.320Z,17.00
2023-09-27T08:45:14.772Z,17.00
2023-09-27T08:47:47.606Z,17.10
2023-09-27T08:50:16.306Z,17.30
2023-09-27T08:52:48.502Z,17.40
2023-09-27T08:55:18.219Z,17.60
2023-09-27T08:57:48.981Z,17.80
2023-09-27T09:00:21.472Z,17.90
2023-09-27T09:02:53.795Z,17.90
2023-09-27T09:05:23.506Z,18.00
2023-09-27T09:07:52.751Z,18.10
2023-09-27T09:10:22.390Z,18.20
2023-09-27T09:12:50.600Z,18.20
2023-09-27T09:15:30.011Z,18.10
2023-09-27T09:18:00.155Z,18.10
2023-09-27T09:20:34.340Z,18.00
2023-09-27T09:23:13.754Z,18.00
2023-09-27T09:25:45.197Z,18.00
2023-09-27T09:28:15.079Z,17.90
2023-09-27T09:30:47.968Z,18.00
2023-09-27T09:33:21.068Z,18.00
2023-09-27T09:35:49.461Z,18.00
2023-09-27T09:38:27.049Z,18.10
2023-09-27T09:40:56.091Z,18.20
2023-09-27T09:43:32.275Z,18.20
2023-09-27T09:46:01.951Z,18.20
2023-09-27T09:48:32.664Z,18.30
2023-09-27T09:51:05.521Z,18.40
2023-09-27T09:53:34.065Z,18.50
2023-09-27T09:58:43.630Z,18.60
2023-09-27T10:01:16.389Z,18.70
2023-09-27T10:03:49.486Z,18.80
2023-09-27T10:06:26.416Z,19.00
2023-09-27T10:09:06.489Z,19.10
2023-09-27T10:11:37.831Z,19.10
2023-09-27T10:14:07.650Z,19.10
2023-09-27T10:16:35.217Z,19.30
2023-09-27T10:19:06.554Z,19.40
2023-09-27T10:21:34.692Z,19.50
2023-09-27T10:24:05.413Z,19.40
2023-09-27T10:26:39.863Z,19.40
2023-09-27T10:29:16.663Z,19.50
2023-09-27T10:32:21.320Z,19.60
2023-09-27T10:34:52.760Z,19.80
2023-09-27T10:37:57.799Z,19.50
2023-09-27T10:40:26.325Z,19.60
2023-09-27T10:42:56.456Z,19.70
2023-09-27T10:45:24.668Z,19.80
2023-09-27T10:47:55.074Z,19.80
2023-09-27T10:50:32.125Z,19.80
2023-09-27T10:53:01.632Z,19.80
2023-09-27T10:55:39.822Z,20.00
2023-09-27T10:58:08.310Z,19.90
2023-09-27T11:00:36.438Z,20.20
2023-09-27T11:03:18.562Z,20.30
2023-09-27T11:05:48.725Z,20.40
2023-09-27T11:08:22.551Z,20.30
2023-09-27T11:10:53.699Z,20.30
2023-09-27T11:13:22.608Z,20.30
2023-09-27T11:15:51.872Z,20.30
2023-09-27T11:18:20.146Z,20.40
2023-09-27T11:20:49.848Z,20.50
2023-09-27T11:23:21.244Z,20.80
2023-09-27T11:25:50.450Z,20.90
2023-09-27T11:28:18.732Z,20.90
2023-09-27T11:30:46.877Z,20.90
2023-09-27T11:33:18.024Z,21.00
2023-09-27T11:35:51.299Z,21.10
2023-09-27T11:38:19.430Z,21.10
2023-09-27T11:40:49.555Z,21.30
2023-09-27T11:43:18.718Z,21.40
2023-09-27T11:45:48.810Z,21.50
2023-09-27T11:48:18.475Z,21.40
2023-09-27T11:50:47.345Z,21.30
2023-09-27T11:53:17.366Z,21.30
2023-09-27T11:55:45.675Z,21.30
2023-09-27T11:58:13.768Z,21.30
2023-09-27T12:00:41.867Z,21.20
2023-09-27T12:03:11.902Z,21.20
2023-09-27T12:05:40.943Z,21.20
2023-09-27T12:08:09.606Z,21.30
2023-09-27T12:10:39.138Z,21.50
2023-09-27T12:13:07.428Z,21.40
2023-09-27T12:15:35.537Z,21.40
2023-09-27T12:18:04.131Z,21.50
2023-09-27T12:20:40.888Z,21.60
2023-09-27T12:23:11.591Z,21.60
2023-09-27T12:25:41.831Z,21.70
2023-09-27T12:28:10.344Z,21.60
2023-09-27T12:30:38.415Z,21.60
2023-09-27T12:33:06.820Z,21.60
2023-09-27T12:35:35.115Z,21.70
2023-09-27T12:38:05.432Z,21.80
2023-09-27T12:40:34.486Z,21.80
2023-09-27T12:43:05.528Z,21.90
2023-09-27T12:45:33.850Z,22.00
2023-09-27T12:48:02.128Z,22.10
2023-09-27T12:50:31.279Z,22.10
2023-09-27T12:52:59.504Z,22.10
2023-09-27T12:55:28.214Z,22.10
2023-09-27T12:57:56.296Z,22.20
2023-09-27T13:00:27.592Z,22.20
2023-09-27T13:02:55.783Z,22.20
2023-09-27T13:05:24.029Z,22.30
2023-09-27T13:07:52.198Z,22.30
2023-09-27T13:10:20.737Z,22.20
2023-09-27T13:12:49.793Z,22.20
2023-09-27T13:15:17.922Z,22.30
2023-09-27T13:17:47.652Z,22.40
2023-09-27T13:20:16.706Z,22.50
2023-09-27T13:22:44.987Z,22.50
2023-09-27T13:25:13.154Z,22.50
2023-09-27T13:27:41.926Z,22.50
2023-09-27T13:30:18.798Z,22.50
2023-09-27T13:33:00.627Z,22.50
2023-09-27T13:35:29.694Z,22.60
2023-09-27T13:37:57.847Z,22.60
2023-09-27T13:40:25.966Z,22.50
2023-09-27T13:42:55.601Z,22.50
2023-09-27T13:45:23.963Z,22.50
2023-09-27T13:47:52.301Z,22.50
2023-09-27T13:50:21.825Z,22.60
2023-09-27T13:52:49.924Z,22.60
2023-09-27T13:55:18.175Z,22.60
2023-09-27T13:57:46.633Z,22.60
2023-09-27T14:00:16.839Z,22.60
2023-09-27T14:02:45.140Z,22.70
2023-09-27T14:05:13.389Z,22.70
2023-09-27T14:07:43.418Z,22.50
2023-09-27T14:10:12.059Z,22.80
2023-09-27T14:12:40.170Z,22.80
2023-09-27T14:15:10.224Z,22.80
2023-09-27T14:17:39.988Z,22.90
2023-09-27T14:20:11.379Z,22.80
2023-09-27T14:22:40.534Z,22.70
2023-09-27T14:25:10.565Z,22.60
2023-09-27T14:27:39.144Z,22.60
2023-09-27T14:30:08.934Z,22.60
2023-09-27T14:32:37.150Z,22.60
2023-09-27T14:35:07.824Z,22.50
2023-09-27T14:37:36.383Z,22.50
2023-09-27T14:40:05.441Z,22.40
2023-09-27T14:42:35.518Z,22.40
2023-09-27T14:45:03.898Z,22.40
2023-09-27T14:47:33.178Z,22.40
2023-09-27T14:50:01.659Z,22.50
2023-09-27T14:52:29.802Z,22.50
2023-09-27T14:54:57.876Z,22.40
2023-09-27T14:57:28.115Z,22.50
2023-09-27T14:59:57.711Z,22.50
2023-09-27T15:02:26.009Z,22.40
2023-09-27T15:04:54.341Z,22.50
2023-09-27T15:07:22.570Z,22.40
2023-09-27T15:09:50.782Z,22.40
2023-09-27T15:12:18.941Z,22.30
2023-09-27T15:14:47.029Z,22.30
2023-09-27T15:17:18.840Z,22.40
2023-09-27T15:19:47.134Z,22.60
2023-09-27T15:22:16.034Z,22.60
2023-09-27T15:24:44.188Z,22.70
2023-09-27T15:27:12.516Z,22.80
2023-09-27T15:29:40.599Z,22.80
2023-09-27T15:32:08.848Z,22.80
2023-09-27T15:34:38.333Z,22.80
2023-09-27T15:37:06.465Z,22.80
2023-09-27T15:39:34.553Z,22.80
2023-09-27T15:42:03.162Z,22.70
2023-09-27T15:44:38.007Z,22.70
2023-09-27T15:47:06.473Z,22.80
2023-09-27T15:49:34.650Z,22.70
2023-09-27T15:52:04.192Z,22.60
2023-09-27T15:54:32.242Z,22.70
2023-09-27T15:57:00.694Z,22.60
2023-09-27T15:59:29.046Z,22.60
2023-09-27T16:01:57.934Z,22.50
2023-09-27T16:04:27.853Z,22.40
2023-09-27T16:06:56.536Z,22.30
2023-09-27T16:09:26.277Z,22.40
2023-09-27T16:11:55.825Z,22.20
2023-09-27T16:14:25.544Z,22.20
2023-09-27T16:16:53.614Z,22.20
2023-09-27T16:19:22.259Z,22.20
2023-09-27T16:21:51.828Z,22.10
2023-09-27T16:24:19.951Z,22.00
2023-09-27T16:26:50.359Z,21.90
2023-09-27T16:29:18.476Z,21.80
2023-09-27T16:31:47.612Z,21.60
2023-09-27T16:34:16.084Z,21.60
2023-09-27T16:36:45.968Z,21.40
2023-09-27T16:39:15.015Z,21.40
2023-09-27T16:41:43.173Z,21.30
2023-09-27T16:44:12.812Z,21.40
2023-09-27T16:46:40.979Z,21.20
2023-09-27T16:49:09.066Z,21.20
2023-09-27T16:51:37.257Z,21.10
2023-09-27T16:54:05.484Z,20.90
2023-09-27T16:56:34.052Z,20.70
2023-09-27T16:59:02.732Z,20.60
2023-09-27T17:01:32.235Z,20.50
2023-09-27T17:04:00.738Z,20.40
2023-09-27T17:06:28.840Z,20.40
2023-09-27T17:08:56.949Z,20.40
2023-09-27T17:11:25.872Z,20.40
2023-09-27T17:13:54.589Z,20.20
2023-09-27T17:16:23.894Z,20.00
2023-09-27T17:18:54.129Z,19.90
2023-09-27T17:21:23.110Z,19.90
2023-09-27T17:23:51.816Z,19.80
2023-09-27T17:26:20.439Z,19.70
2023-09-27T17:28:48.623Z,19.50
2023-09-27T17:31:16.952Z,19.40
2023-09-27T17:33:45.855Z,19.30
2023-09-27T17:36:15.842Z,19.20
2023-09-27T17:38:44.196Z,19.10
2023-09-27T17:41:12.355Z,19.00
2023-09-27T17:43:40.719Z,18.80
2023-09-27T17:46:21.746Z,18.80
2023-09-27T17:48:49.820Z,18.90
2023-09-27T17:51:19.705Z,18.80
2023-09-27T17:53:48.547Z,18.80
2023-09-27T17:56:16.685Z,18.70
2023-09-27T17:58:44.841Z,18.70
2023-09-27T18:01:13.067Z,18.60
2023-09-27T18:03:41.421Z,18.60
2023-09-27T18:06:11.241Z,18.60
2023-09-27T18:08:42.534Z,18.40
2023-09-27T18:11:11.538Z,18.30
2023-09-27T18:13:40.010Z,18.30
2023-09-27T18:16:16.202Z,18.10
2023-09-27T18:18:45.084Z,18.00
2023-09-27T18:21:14.300Z,17.90
2023-09-27T18:23:44.974Z,17.90
2023-09-27T18:26:13.476Z,17.80
2023-09-27T18:28:41.708Z,17.90
2023-09-27T18:31:10.348Z,17.80
2023-09-27T18:33:39.327Z,17.90
2023-09-27T18:36:07.862Z,17.90
2023-09-27T18:38:36.219Z,17.70
2023-09-27T18:41:05.905Z,17.70
2023-09-27T18:43:34.102Z,17.60
2023-09-27T18:46:03.067Z,17.60
2023-09-27T18:48:31.341Z,17.50
2023-09-27T18:50:59.820Z,17.50
2023-09-27T18:53:27.924Z,17.40
2023-09-27T18:55:57.288Z,17.30
2023-09-27T18:58:27.024Z,17.30
2023-09-27T19:00:55.174Z,17.30
2023-09-27T19:03:25.156Z,17.20
2023-09-27T19:05:53.416Z,17.20
2023-09-27T19:08:21.623Z,17.10
2023-09-27T19:10:49.997Z,17.00
2023-09-27T19:13:18.282Z,17.00
2023-09-27T19:15:47.906Z,17.00
2023-09-27T19:18:16.143Z,16.90
2023-09-27T19:20:44.424Z,16.80
2023-09-27T19:23:12.598Z,16.80
2023-09-27T19:25:42.309Z,16.70
2023-09-27T19:28:10.461Z,16.70
2023-09-27T19:30:40.710Z,16.60
2023-09-27T19:33:11.618Z,16.50
2023-09-27T19:35:39.731Z,16.50
2023-09-27T19:38:07.899Z,16.50
2023-09-27T19:40:35.985Z,16.50
2023-09-27T19:43:04.381Z,16.60
2023-09-27T19:45:32.687Z,16.60
2023-09-27T19:48:00.863Z,16.50
2023-09-27T19:50:30.376Z,16.50
2023-09-27T19:52:58.631Z,16.50
2023-09-27T19:55:26.709Z,16.50
2023-09-27T19:57:56.519Z,16.40
2023-09-27T20:00:24.667Z,16.30
2023-09-27T20:02:53.960Z,16.30
2023-09-27T20:05:26.682Z,16.30
2023-09-27T20:07:56.245Z,16.20
2023-09-27T20:10:26.124Z,16.20
2023-09-27T20:12:54.315Z,16.30
2023-09-27T20:15:23.068Z,16.20
2023-09-27T20:17:51.136Z,16.30
2023-09-27T20:20:19.692Z,16.30
2023-09-27T20:22:48.327Z,16.20
2023-09-27T20:25:18.092Z,16.30
2023-09-27T20:27:46.174Z,16.30
2023-09-27T20:30:14.889Z,16.20
2023-09-27T20:32:43.141Z,16.20
2023-09-27T20:35:11.626Z,16.20
2023-09-27T20:37:39.878Z,16.20
2023-09-27T20:40:09.414Z,16.20
2023-09-27T20:42:38.968Z,16.20
2023-09-27T20:45:08.155Z,16.10
2023-09-27T20:47:37.194Z,16.10
2023-09-27T20:50:05.856Z,16.10
2023-09-27T20:52:33.967Z,16.00
2023-09-27T20:55:02.585Z,16.10
2023-09-27T20:57:30.835Z,16.20
2023-09-27T21:00:01.367Z,16.00
2023-09-27T21:02:29.400Z,15.90
2023-09-27T21:05:00.523Z,15.80
2023-09-27T21:07:29.201Z,15.80
2023-09-27T21:09:57.477Z,15.80
2023-09-27T21:12:25.717Z,15.70
2023-09-27T21:14:53.768Z,15.60
2023-09-27T21:17:23.238Z,15.60
2023-09-27T21:19:52.352Z,15.50
2023-09-27T21:22:20.696Z,15.50
2023-09-27T21:24:49.331Z,15.40
2023-09-27T21:27:17.513Z,15.40
2023-09-27T21:29:45.624Z,15.50
2023-09-27T21:32:13.710Z,15.50
2023-09-27T21:34:45.219Z,15.50
2023-09-27T21:37:16.239Z,15.40
2023-09-27T21:39:44.394Z,15.50
2023-09-27T21:42:12.520Z,15.40
2023-09-27T21:44:40.652Z,15.40
2023-09-27T21:47:09.433Z,15.40
2023-09-27T21:49:37.562Z,15.40
2023-09-27T21:52:07.524Z,15.30
2023-09-27T21:54:35.564Z,15.40
2023-09-27T21:57:03.941Z,15.40
2023-09-27T21:59:32.050Z,15.40
2023-09-27T22:02:00.187Z,15.40
2023-09-27T22:04:28.377Z,15.40
2023-09-27T22:06:56.630Z,15.40
2023-09-27T22:09:27.758Z,15.50
2023-09-27T22:11:57.134Z,15.50
2023-09-27T22:14:26.499Z,15.50
2023-09-27T22:16:58.253Z,15.60
2023-09-27T22:19:28.989Z,15.50
2023-09-27T22:21:59.469Z,15.50
2023-09-27T22:24:31.707Z,15.50
2023-09-27T22:27:01.946Z,15.50
2023-09-27T22:29:32.661Z,15.50
2023-09-27T22:32:01.663Z,15.50
2023-09-27T22:34:38.136Z,15.60
2023-09-27T22:37:08.936Z,15.50
2023-09-27T22:39:41.345Z,15.60
2023-09-27T22:42:13.996Z,15.50
2023-09-27T22:44:44.455Z,15.50
2023-09-27T22:47:13.613Z,15.50
2023-09-27T22:49:41.887Z,15.50
2023-09-27T22:52:10.346Z,15.50
2023-09-27T22:54:41.718Z,15.50
2023-09-27T22:57:09.832Z,15.40
2023-09-27T22:59:39.148Z,15.50
2023-09-27T23:02:11.092Z,15.40
2023-09-27T23:04:39.554Z,15.40
2023-09-27T23:07:17.649Z,15.40
2023-09-27T23:09:48.346Z,15.50
2023-09-27T23:12:20.319Z,15.50
2023-09-27T23:15:06.872Z,15.50
2023-09-27T23:17:57.658Z,15.40
2023-09-27T23:20:30.331Z,15.50
2023-09-27T23:22:59.625Z,15.50
2023-09-27T23:25:52.907Z,15.60
2023-09-27T23:28:41.146Z,15.60
2023-09-27T23:31:12.553Z,15.60
2023-09-27T23:33:50.946Z,15.60
2023-09-27T23:36:25.827Z,15.60
2023-09-27T23:38:59.784Z,15.60
2023-09-27T23:41:31.245Z,15.60
2023-09-27T23:44:01.295Z,15.70
2023-09-27T23:46:30.295Z,15.70
2023-09-27T23:49:02.863Z,15.70
2023-09-27T23:51:31.296Z,15.70
2023-09-27T23:54:00.729Z,15.70
2023-09-27T23:56:31.800Z,15.70
2023-09-27T23:59:08.430Z,15.70
